Time;durP1;ratioP1;P1;durP2;ratioP2;P2;SDS_P1;SDS_P2;PMS_P1;PMS_P2;Temp;Humidity;BMP_temperature;BMP_pressure;BME280_temperature;BME280_humidity;BME280_pressure;Samples;Min_cycle;Max_cycle;Signal;HPM_P1;HPM_P2
2021/07/14 00:00:26;;;;;;;19.58;13.10;;;22.10;99.90;;;;;;5084796;28;20060;-88
2021/07/14 00:02:53;;;;;;;16.67;13.52;;;22.10;99.90;;;;;;5096803;28;20044;-87
2021/07/14 00:05:20;;;;;;;16.75;13.13;;;22.20;99.90;;;;;;5096513;28;20060;-88
2021/07/14 00:07:47;;;;;;;20.20;13.70;;;22.10;99.90;;;;;;5098812;28;20072;-88
2021/07/14 00:10:16;;;;;;;14.32;12.32;;;22.10;99.90;;;;;;5095245;28;20059;-89
2021/07/14 00:12:52;;;;;;;18.20;13.50;;;22.10;99.90;;;;;;5082261;28;20032;-88
2021/07/14 00:23:13;;;;;;;14.70;11.27;;;22.10;99.90;;;;;;5081024;28;20048;-89
2021/07/14 00:25:39;;;;;;;17.23;12.43;;;22.10;99.90;;;;;;5090713;28;20036;-91
2021/07/14 00:28:04;;;;;;;16.52;10.73;;;22.10;99.90;;;;;;5079350;28;20045;-90
2021/07/14 00:30:31;;;;;;;16.33;10.70;;;22.00;99.90;;;;;;5105620;28;20039;-89
2021/07/14 00:32:57;;;;;;;18.58;11.18;;;22.00;99.90;;;;;;5114444;28;20054;-89
2021/07/14 00:35:23;;;;;;;15.45;10.82;;;22.00;99.90;;;;;;5099759;28;20275;-88
2021/07/14 00:37:49;;;;;;;13.60;10.85;;;22.00;99.90;;;;;;5099713;28;20070;-88
2021/07/14 00:40:15;;;;;;;11.30;9.70;;;22.00;99.90;;;;;;5114963;28;20042;-89
2021/07/14 00:42:42;;;;;;;11.50;9.90;;;22.10;99.90;;;;;;5097034;28;20036;-89
2021/07/14 00:45:09;;;;;;;10.35;9.32;;;22.10;99.90;;;;;;5086482;28;20037;-90
2021/07/14 00:47:36;;;;;;;10.15;9.13;;;22.10;99.90;;;;;;5094720;28;20056;-89
2021/07/14 00:50:04;;;;;;;11.25;9.40;;;22.10;99.90;;;;;;5103009;28;20043;-89
2021/07/14 00:52:30;;;;;;;10.93;9.23;;;22.00;99.90;;;;;;5097472;28;20119;-89
2021/07/14 00:54:57;;;;;;;12.93;9.52;;;22.00;99.90;;;;;;5092030;28;20124;-88
2021/07/14 00:57:26;;;;;;;11.70;10.50;;;22.00;99.90;;;;;;5091780;28;20105;-89
2021/07/14 00:59:52;;;;;;;13.07;9.40;;;22.00;99.90;;;;;;5088650;28;20382;-89
2021/07/14 01:02:17;;;;;;;15.05;9.40;;;22.00;99.90;;;;;;5083012;28;20048;-88
2021/07/14 01:04:49;;;;;;;10.63;9.07;;;22.00;99.90;;;;;;5087926;28;20042;-89
2021/07/14 01:07:25;;;;;;;16.10;10.30;;;22.00;99.90;;;;;;5091032;28;20036;-89
2021/07/14 01:09:58;;;;;;;12.18;9.35;;;21.90;99.90;;;;;;5080298;28;20040;-88
2021/07/14 01:12:27;;;;;;;;;;;22.00;99.90;;;;;;5088310;28;20036;-88
2021/07/14 01:15:04;;;;;;;9.10;8.20;;;21.90;99.90;;;;;;5090849;28;19912;-89
2021/07/14 01:17:36;;;;;;;13.13;8.50;;;22.00;99.90;;;;;;5092205;28;20052;-89
2021/07/14 01:20:18;;;;;;;10.00;8.63;;;21.90;99.90;;;;;;5079640;28;20352;-89
2021/07/14 01:22:56;;;;;;;11.90;8.68;;;22.00;99.90;;;;;;5082102;28;20044;-90
2021/07/14 01:25:47;;;;;;;10.52;8.30;;;21.90;99.90;;;;;;5098700;28;20117;-90
2021/07/14 01:28:13;;;;;;;12.48;8.30;;;21.80;99.90;;;;;;5093266;28;20390;-89
2021/07/14 01:30:39;;;;;;;8.93;7.93;;;21.80;99.90;;;;;;5084460;28;20090;-91
2021/07/14 01:33:06;;;;;;;9.25;8.30;;;21.80;99.90;;;;;;5085803;28;20031;-87
2021/07/14 01:35:36;;;;;;;9.93;8.80;;;21.70;99.90;;;;;;5095502;28;20043;-88
2021/07/14 01:38:03;;;;;;;16.23;9.27;;;21.70;99.90;;;;;;5098401;28;20032;-88
2021/07/14 01:40:31;;;;;;;15.48;8.57;;;21.60;99.90;;;;;;5095692;28;20037;-90
2021/07/14 01:43:00;;;;;;;10.27;7.40;;;21.60;99.90;;;;;;5084026;28;20132;-89
2021/07/14 01:45:28;;;;;;;12.40;7.40;;;21.60;99.90;;;;;;5098728;28;20047;-88
2021/07/14 01:47:54;;;;;;;8.98;7.05;;;21.60;99.90;;;;;;5081879;28;20415;-88
2021/07/14 01:50:22;;;;;;;9.20;6.93;;;21.50;99.90;;;;;;5095339;28;20472;-89
2021/07/14 01:52:49;;;;;;;8.25;6.82;;;21.50;99.90;;;;;;5086085;28;20032;-91
2021/07/14 01:55:15;;;;;;;8.80;6.63;;;21.40;99.90;;;;;;5081904;28;20044;-89
2021/07/14 01:57:42;;;;;;;9.27;5.97;;;21.40;99.90;;;;;;5090740;28;20036;-90
2021/07/14 02:00:09;;;;;;;6.90;5.90;;;21.30;99.90;;;;;;5085267;28;20072;-89
2021/07/14 02:02:42;;;;;;;6.57;5.57;;;21.30;99.90;;;;;;5094530;28;20043;-90
2021/07/14 02:05:08;;;;;;;5.80;5.30;;;21.40;99.90;;;;;;5094171;28;20123;-90
2021/07/14 02:07:35;;;;;;;6.95;5.07;;;21.30;99.90;;;;;;5088754;28;20071;-90
2021/07/14 02:10:00;;;;;;;6.65;5.10;;;21.30;99.90;;;;;;5084503;28;20041;-91
2021/07/14 02:12:29;;;;;;;7.60;5.30;;;21.30;99.90;;;;;;5094811;28;20092;-90
2021/07/14 02:15:05;;;;;;;6.40;5.20;;;21.40;99.90;;;;;;5083386;28;20028;-90
2021/07/14 02:17:53;;;;;;;5.50;4.95;;;21.30;99.90;;;;;;5088090;28;20498;-89
2021/07/14 02:20:20;;;;;;;6.80;4.93;;;21.30;99.90;;;;;;5082778;28;20044;-90
2021/07/14 02:22:47;;;;;;;5.22;4.65;;;21.30;99.90;;;;;;5088629;28;20043;-88
2021/07/14 02:25:13;;;;;;;5.32;4.82;;;21.40;99.90;;;;;;5099778;28;20073;-89
2021/07/14 02:27:39;;;;;;;6.90;4.55;;;21.30;99.90;;;;;;5090169;28;20414;-89
2021/07/14 02:30:06;;;;;;;5.03;4.53;;;21.30;99.90;;;;;;5093505;28;20031;-89
2021/07/14 02:32:32;;;;;;;5.53;4.20;;;21.30;99.90;;;;;;5081812;28;20039;-87
2021/07/14 02:34:58;;;;;;;3.88;3.45;;;21.30;99.90;;;;;;5090729;28;20064;-88
2021/07/14 02:37:40;;;;;;;6.93;3.08;;;21.30;99.90;;;;;;5086084;28;20036;-89
2021/07/14 02:40:08;;;;;;;5.95;3.53;;;21.30;99.90;;;;;;5080875;28;20044;-88
2021/07/14 02:42:35;;;;;;;7.00;3.72;;;21.20;99.90;;;;;;5078977;28;20044;-87
2021/07/14 02:45:04;;;;;;;4.63;3.22;;;21.10;99.90;;;;;;5077959;28;20450;-88
2021/07/14 02:47:36;;;;;;;7.30;3.13;;;21.20;99.90;;;;;;5085762;28;20094;-89
2021/07/14 02:50:08;;;;;;;7.40;3.63;;;21.10;99.90;;;;;;5088460;28;20776;-88
2021/07/14 02:52:35;;;;;;;4.35;3.25;;;21.10;99.90;;;;;;5090166;28;20036;-87
2021/07/14 02:55:02;;;;;;;9.27;3.05;;;21.00;99.90;;;;;;5095172;28;20046;-88
2021/07/14 02:57:29;;;;;;;5.60;3.08;;;21.00;99.90;;;;;;5090753;28;20044;-88
2021/07/14 02:59:55;;;;;;;5.65;3.22;;;21.00;99.90;;;;;;5103481;28;20035;-88
2021/07/14 03:02:21;;;;;;;6.32;2.97;;;21.00;99.90;;;;;;5104100;28;20051;-88
2021/07/14 03:04:51;;;;;;;5.57;2.75;;;20.90;99.90;;;;;;5100135;28;20368;-88
2021/07/14 03:07:21;;;;;;;10.00;3.00;;;20.90;99.90;;;;;;5085188;28;20046;-89
2021/07/14 03:09:47;;;;;;;6.13;3.75;;;20.90;99.90;;;;;;5087810;28;20032;-87
2021/07/14 03:12:15;;;;;;;5.40;4.00;;;20.80;99.90;;;;;;5088715;28;20387;-88
2021/07/14 03:14:45;;;;;;;6.72;2.78;;;20.70;99.90;;;;;;5085738;28;20280;-88
2021/07/14 03:17:13;;;;;;;5.22;2.97;;;20.70;99.90;;;;;;5093044;28;20399;-88
2021/07/14 03:19:39;;;;;;;3.38;2.97;;;20.70;99.90;;;;;;5079627;28;20387;-88
2021/07/14 03:22:06;;;;;;;4.22;3.00;;;20.70;99.90;;;;;;5084699;28;20039;-89
2021/07/14 03:24:34;;;;;;;4.47;2.88;;;20.80;99.90;;;;;;5084932;28;20115;-89
2021/07/14 03:27:01;;;;;;;8.18;3.03;;;20.70;99.90;;;;;;5085834;28;20032;-90
2021/07/14 03:29:28;;;;;;;4.15;2.85;;;20.70;99.90;;;;;;5080414;28;20020;-89
2021/07/14 03:31:55;;;;;;;9.32;3.47;;;20.70;99.90;;;;;;5100380;28;20031;-90
2021/07/14 03:34:21;;;;;;;4.78;2.58;;;20.70;99.90;;;;;;5095067;28;20032;-90
2021/07/14 03:36:48;;;;;;;2.92;2.47;;;20.70;99.90;;;;;;5096666;28;20056;-89
2021/07/14 03:39:15;;;;;;;5.22;2.38;;;20.70;99.90;;;;;;5098268;28;20048;-89
2021/07/14 03:41:41;;;;;;;2.42;2.22;;;20.70;99.90;;;;;;5089795;28;20040;-89
2021/07/14 03:44:08;;;;;;;3.13;2.67;;;20.70;99.90;;;;;;5097113;28;20096;-91
2021/07/14 03:46:35;;;;;;;4.20;2.90;;;20.70;99.90;;;;;;5112446;28;20047;-88
2021/07/14 03:49:02;;;;;;;4.15;2.47;;;20.70;99.90;;;;;;5094085;28;20302;-89
2021/07/14 03:51:29;;;;;;;4.85;2.85;;;20.60;99.90;;;;;;5082623;28;20040;-89
2021/07/14 03:53:55;;;;;;;6.00;2.90;;;20.50;99.90;;;;;;5091981;28;20036;-89
2021/07/14 03:56:24;;;;;;;3.47;2.08;;;20.50;99.90;;;;;;5086122;28;20114;-89
2021/07/14 03:58:52;;;;;;;4.05;2.22;;;20.50;99.90;;;;;;5091954;28;20033;-89
2021/07/14 04:01:18;;;;;;;6.97;2.42;;;20.50;99.90;;;;;;5081412;28;20040;-88
2021/07/14 04:03:44;;;;;;;2.65;2.13;;;20.50;99.90;;;;;;5090009;28;20046;-89
2021/07/14 04:06:10;;;;;;;3.35;2.90;;;20.50;99.90;;;;;;5100355;28;20101;-89
2021/07/14 04:09:09;;;;;;;3.30;1.90;;;20.50;99.90;;;;;;5098319;28;20570;-89
2021/07/14 04:11:36;;;;;;;4.85;2.55;;;20.50;99.90;;;;;;5096683;28;20038;-89
2021/07/14 04:14:01;;;;;;;3.28;1.90;;;20.50;99.90;;;;;;5099674;28;20115;-90
2021/07/14 04:16:27;;;;;;;5.70;1.92;;;20.50;99.90;;;;;;5094154;28;20055;-90
2021/07/14 04:18:53;;;;;;;2.60;1.83;;;20.50;99.90;;;;;;5100121;28;20124;-87
2021/07/14 04:21:21;;;;;;;3.00;2.00;;;20.50;99.90;;;;;;5092961;28;20433;-89
2021/07/14 04:36:04;;;;;;;7.45;2.30;;;20.50;99.90;;;;;;5165939;27;20384;-88
2021/07/14 04:38:31;;;;;;;4.70;1.40;;;21.40;99.10;;;;;;5152608;27;20578;-88
2021/07/14 04:40:57;;;;;;;2.00;1.33;;;21.30;98.90;;;;;;5156427;27;20031;-87
2021/07/14 04:43:23;;;;;;;3.28;1.70;;;21.30;98.80;;;;;;5166519;27;20128;-87
2021/07/14 04:45:48;;;;;;;1.95;1.13;;;21.20;98.90;;;;;;5155985;27;20062;-88
2021/07/14 04:48:14;;;;;;;2.95;1.20;;;21.10;99.00;;;;;;5156161;27;20038;-87
2021/07/14 04:50:39;;;;;;;3.60;1.20;;;21.00;99.10;;;;;;5156131;27;20045;-87
2021/07/14 04:53:05;;;;;;;3.08;1.30;;;20.90;99.20;;;;;;5174637;27;20110;-87
2021/07/14 04:55:30;;;;;;;3.22;1.60;;;20.80;99.20;;;;;;5157759;27;20038;-88
2021/07/14 04:57:56;;;;;;;6.30;1.60;;;20.80;99.40;;;;;;5158308;27;20034;-89
2021/07/14 05:00:21;;;;;;;2.05;1.60;;;20.70;99.10;;;;;;5156958;27;20126;-88
2021/07/14 05:02:47;;;;;;;1.70;1.33;;;20.60;99.30;;;;;;5174775;27;20335;-88
2021/07/14 05:05:14;;;;;;;3.35;1.40;;;20.70;99.40;;;;;;5162533;27;20046;-88
2021/07/14 05:07:39;;;;;;;6.38;1.35;;;20.60;99.50;;;;;;5156574;27;20143;-87
2021/07/14 05:10:06;;;;;;;3.25;1.23;;;20.60;99.10;;;;;;5175007;27;20110;-90
2021/07/14 05:12:31;;;;;;;3.00;1.50;;;20.60;99.40;;;;;;5175089;27;20035;-89
2021/07/14 05:14:57;;;;;;;5.05;1.20;;;20.50;99.60;;;;;;5176683;27;20018;-88
2021/07/14 05:17:23;;;;;;;7.50;1.75;;;20.50;99.60;;;;;;5185399;27;20066;-89
2021/07/14 05:19:49;;;;;;;1.42;1.30;;;20.50;99.90;;;;;;5153138;27;20038;-89
2021/07/14 05:22:14;;;;;;;6.18;1.67;;;20.50;99.40;;;;;;5160922;27;20126;-89
2021/07/14 05:24:41;;;;;;;4.30;1.40;;;20.50;99.00;;;;;;5156284;27;20186;-88
2021/07/14 05:27:06;;;;;;;4.68;1.25;;;20.50;99.00;;;;;;5168527;27;20169;-87
2021/07/14 05:29:32;;;;;;;9.82;2.08;;;20.50;99.10;;;;;;5151590;27;20078;-88
2021/07/14 05:31:58;;;;;;;2.60;1.40;;;20.50;98.80;;;;;;5153193;27;20390;-88
2021/07/14 05:34:23;;;;;;;2.47;1.25;;;20.50;98.90;;;;;;5168209;27;20042;-89
2021/07/14 05:36:49;;;;;;;4.45;1.35;;;20.60;99.00;;;;;;5161215;27;20038;-89
2021/07/14 05:39:15;;;;;;;6.10;1.27;;;20.60;98.20;;;;;;5141575;27;20055;-90
2021/07/14 05:41:41;;;;;;;3.97;1.13;;;20.50;98.60;;;;;;5155814;27;20102;-88
2021/07/14 05:44:07;;;;;;;1.48;1.17;;;20.50;99.00;;;;;;5159497;27;20339;-87
2021/07/14 05:46:33;;;;;;;1.42;1.30;;;20.60;98.50;;;;;;5152263;27;20097;-88
2021/07/14 05:49:02;;;;;;;3.72;1.02;;;20.60;98.20;;;;;;5120134;27;20041;-89
2021/07/14 05:51:29;;;;;;;6.38;1.35;;;20.60;98.50;;;;;;5129249;27;20038;-87
2021/07/14 05:53:55;;;;;;;5.07;1.25;;;20.60;98.60;;;;;;5145106;27;20034;-88
2021/07/14 05:56:20;;;;;;;2.40;1.02;;;20.60;98.90;;;;;;5143794;27;20300;-88
2021/07/14 05:58:47;;;;;;;3.63;0.98;;;20.70;98.30;;;;;;5141365;27;20049;-88
2021/07/14 06:01:44;;;;;;;2.13;1.20;;;20.80;98.10;;;;;;5140679;27;20095;-93
2021/07/14 06:04:09;;;;;;;1.92;1.30;;;20.70;98.00;;;;;;5126027;27;20075;-88
2021/07/14 06:06:35;;;;;;;2.90;1.27;;;20.80;98.30;;;;;;5160805;27;20081;-90
2021/07/14 06:09:00;;;;;;;1.17;1.08;;;20.90;98.30;;;;;;5140042;27;20623;-88
2021/07/14 06:11:26;;;;;;;2.35;1.45;;;21.00;97.70;;;;;;5139304;27;20135;-87
2021/07/14 06:13:56;;;;;;;4.13;1.45;;;21.10;97.60;;;;;;5152745;27;20381;-89
2021/07/14 06:16:30;;;;;;;4.25;0.82;;;21.10;97.80;;;;;;5138829;27;20126;-89
2021/07/14 06:18:58;;;;;;;7.10;1.40;;;21.20;97.40;;;;;;5137840;27;20031;-92
2021/07/14 06:21:34;;;;;;;4.30;1.20;;;21.30;97.30;;;;;;5142887;27;20039;-94
2021/07/14 06:24:27;;;;;;;4.05;1.20;;;21.40;97.00;;;;;;5161240;27;20317;-91
2021/07/14 06:26:55;;;;;;;1.52;1.25;;;21.30;96.50;;;;;;5138879;27;20038;-91
2021/07/14 06:29:22;;;;;;;2.88;1.45;;;21.30;96.40;;;;;;5148989;27;20119;-90
2021/07/14 06:31:47;;;;;;;1.52;1.42;;;21.40;96.70;;;;;;5152805;27;20039;-91
2021/07/14 06:34:13;;;;;;;3.05;1.10;;;21.50;96.60;;;;;;5147230;27;20404;-90
2021/07/14 06:36:39;;;;;;;1.50;1.30;;;21.50;96.60;;;;;;5148664;27;20061;-91
2021/07/14 06:39:04;;;;;;;3.80;1.13;;;21.50;96.30;;;;;;5142533;27;20130;-92
2021/07/14 06:41:30;;;;;;;2.95;1.00;;;21.50;95.90;;;;;;5154462;27;20035;-91
2021/07/14 06:44:01;;;;;;;1.02;0.90;;;21.50;96.40;;;;;;5138260;27;20149;-90
2021/07/14 06:46:27;;;;;;;2.45;1.08;;;21.70;96.50;;;;;;5153192;27;20058;-89
2021/07/14 06:49:06;;;;;;;2.20;1.73;;;21.70;96.70;;;;;;5139276;27;20056;-91
2021/07/14 06:51:32;;;;;;;4.70;0.98;;;21.80;95.80;;;;;;5146798;27;20038;-91
2021/07/14 06:53:57;;;;;;;3.45;1.10;;;22.00;95.90;;;;;;5151591;27;20069;-90
2021/07/14 06:56:23;;;;;;;6.00;1.10;;;22.10;95.60;;;;;;5139342;27;20041;-90
2021/07/14 06:58:49;;;;;;;1.20;1.10;;;22.30;95.60;;;;;;5141063;27;20106;-91
2021/07/14 07:01:16;;;;;;;3.20;1.63;;;22.30;94.50;;;;;;5141170;27;20125;-90
2021/07/14 07:03:42;;;;;;;1.67;1.08;;;22.30;94.50;;;;;;5145465;27;20038;-90
2021/07/14 07:06:08;;;;;;;6.38;1.27;;;22.20;94.60;;;;;;5148176;27;20049;-89
2021/07/14 07:08:34;;;;;;;3.45;1.45;;;22.20;94.90;;;;;;5161263;27;20411;-90
2021/07/14 07:11:00;;;;;;;3.33;0.93;;;22.20;94.90;;;;;;5141314;27;20037;-90
2021/07/14 07:13:26;;;;;;;5.63;1.10;;;22.30;94.40;;;;;;5141833;27;20125;-90
2021/07/14 07:15:55;;;;;;;2.28;1.10;;;22.30;95.00;;;;;;5141925;27;20030;-90
2021/07/14 07:18:21;;;;;;;2.35;1.30;;;22.40;94.70;;;;;;5141363;27;20057;-91
2021/07/14 07:20:48;;;;;;;1.90;1.20;;;22.60;93.70;;;;;;5143837;27;20056;-89
2021/07/14 07:23:13;;;;;;;1.60;1.50;;;22.60;93.70;;;;;;5148600;27;20049;-89
2021/07/14 07:25:43;;;;;;;4.40;1.10;;;22.60;93.90;;;;;;5142277;27;20118;-89
2021/07/14 07:28:15;;;;;;;1.73;1.15;;;22.50;93.40;;;;;;5129177;27;20035;-92
2021/07/14 07:30:41;;;;;;;1.67;1.38;;;22.50;93.50;;;;;;5122656;27;20114;-90
2021/07/14 07:33:06;;;;;;;4.60;1.00;;;22.40;94.30;;;;;;5141050;27;20125;-90
2021/07/14 07:35:32;;;;;;;1.40;1.30;;;22.50;94.00;;;;;;5141067;27;20420;-90
2021/07/14 07:37:57;;;;;;;1.83;0.90;;;22.50;94.20;;;;;;5155813;27;20093;-88
2021/07/14 07:40:24;;;;;;;1.60;1.20;;;22.50;94.20;;;;;;5139341;27;20114;-89
2021/07/14 07:42:49;;;;;;;2.03;1.00;;;22.60;94.10;;;;;;5141529;27;20042;-90
2021/07/14 07:45:15;;;;;;;2.70;1.30;;;22.60;93.90;;;;;;5140626;27;20538;-90
2021/07/14 07:47:41;;;;;;;2.00;1.30;;;22.70;93.60;;;;;;5141166;27;20149;-90
2021/07/14 07:50:09;;;;;;;4.72;1.50;;;22.70;93.40;;;;;;5137801;27;20441;-89
2021/07/14 07:52:34;;;;;;;4.93;1.60;;;22.80;94.20;;;;;;5141326;27;20137;-89
2021/07/14 07:55:00;;;;;;;2.58;1.05;;;22.80;93.30;;;;;;5141140;27;20493;-91
2021/07/14 07:57:27;;;;;;;2.63;1.00;;;22.80;93.10;;;;;;5140122;27;20039;-89
2021/07/14 07:59:53;;;;;;;2.35;1.33;;;22.80;93.00;;;;;;5139914;27;20039;-92
2021/07/14 08:02:19;;;;;;;1.08;0.98;;;22.80;93.20;;;;;;5142215;27;20049;-90
2021/07/14 08:04:44;;;;;;;3.35;1.30;;;22.60;93.70;;;;;;5142651;27;20030;-89
2021/07/14 08:07:10;;;;;;;2.88;1.63;;;22.60;94.20;;;;;;5140353;27;20121;-90
2021/07/14 08:09:37;;;;;;;3.45;1.73;;;22.60;93.60;;;;;;5127240;27;20042;-90
2021/07/14 08:12:04;;;;;;;2.80;1.33;;;22.50;94.60;;;;;;5120111;27;20364;-89
2021/07/14 08:14:29;;;;;;;3.22;1.20;;;22.60;93.90;;;;;;5140204;27;20380;-90
2021/07/14 08:16:55;;;;;;;2.83;1.45;;;22.60;94.20;;;;;;5140181;27;20049;-89
2021/07/14 08:19:20;;;;;;;6.25;1.45;;;22.60;93.30;;;;;;5144387;27;20045;-91
2021/07/14 08:21:46;;;;;;;2.78;1.25;;;22.60;93.40;;;;;;5148854;27;20038;-90
2021/07/14 08:24:11;;;;;;;8.98;2.13;;;22.50;93.40;;;;;;5141903;27;20129;-90
2021/07/14 08:26:37;;;;;;;4.35;1.67;;;22.40;93.30;;;;;;5140749;27;20062;-89
2021/07/14 08:29:03;;;;;;;1.88;1.13;;;22.40;93.60;;;;;;5139661;27;20030;-90
2021/07/14 08:31:29;;;;;;;3.50;1.20;;;22.50;93.60;;;;;;5158763;27;20039;-91
2021/07/14 08:33:56;;;;;;;1.60;1.00;;;22.50;93.50;;;;;;5140659;27;20039;-90
2021/07/14 08:36:22;;;;;;;2.92;1.38;;;22.50;93.80;;;;;;5141624;27;20063;-90
2021/07/14 08:38:48;;;;;;;5.72;1.80;;;22.60;94.00;;;;;;5150297;27;20065;-90
2021/07/14 08:41:17;;;;;;;2.85;2.10;;;22.70;94.00;;;;;;5154580;27;20042;-91
2021/07/14 08:43:43;;;;;;;1.67;1.17;;;22.70;93.30;;;;;;5146501;27;20046;-90
2021/07/14 08:46:10;;;;;;;2.63;1.20;;;22.70;93.30;;;;;;5160386;27;20039;-90
2021/07/14 08:48:37;;;;;;;1.98;1.02;;;22.70;93.50;;;;;;5141942;27;20080;-90
2021/07/14 08:51:03;;;;;;;1.05;0.95;;;22.80;93.40;;;;;;5140998;27;20034;-90
2021/07/14 08:53:29;;;;;;;4.30;1.50;;;22.80;93.10;;;;;;5139332;27;20263;-90
2021/07/14 08:55:57;;;;;;;1.20;1.10;;;22.90;93.10;;;;;;5149722;27;20015;-89
2021/07/14 08:58:24;;;;;;;1.55;1.20;;;23.10;93.80;;;;;;5147917;27;20039;-90
2021/07/14 09:00:55;;;;;;;1.38;1.08;;;23.20;92.90;;;;;;5137830;28;20118;-90
2021/07/14 09:03:21;;;;;;;1.70;1.10;;;23.30;92.80;;;;;;5140489;27;20034;-90
2021/07/14 09:05:47;;;;;;;4.55;1.50;;;23.40;92.60;;;;;;5123685;27;20041;-90
2021/07/14 09:08:13;;;;;;;1.98;1.00;;;23.60;92.20;;;;;;5139121;27;20058;-90
2021/07/14 09:10:41;;;;;;;1.50;0.88;;;23.70;91.60;;;;;;5141267;27;20117;-91
2021/07/14 09:13:08;;;;;;;2.70;1.02;;;23.90;91.40;;;;;;5143947;27;20035;-90
2021/07/14 09:15:40;;;;;;;2.22;1.10;;;24.00;91.50;;;;;;5143700;27;20393;-91
2021/07/14 09:18:08;;;;;;;2.00;1.00;;;24.00;91.50;;;;;;5142576;27;20437;-90
2021/07/14 09:20:34;;;;;;;3.05;1.00;;;24.10;91.80;;;;;;5143567;27;20039;-89
2021/07/14 09:23:03;;;;;;;1.70;1.35;;;24.20;90.70;;;;;;5161906;27;20038;-89
2021/07/14 09:25:36;;;;;;;1.98;1.20;;;24.10;91.00;;;;;;5144458;27;20297;-90
2021/07/14 09:28:05;;;;;;;2.35;1.42;;;24.10;91.40;;;;;;5150817;27;20031;-90
2021/07/14 09:30:32;;;;;;;2.25;1.40;;;24.10;91.40;;;;;;5149079;27;20034;-91
2021/07/14 09:33:00;;;;;;;4.20;1.67;;;24.10;91.20;;;;;;5149577;27;20038;-90
2021/07/14 09:35:34;;;;;;;2.67;2.00;;;24.10;92.00;;;;;;5153685;27;20092;-91
2021/07/14 09:38:25;;;;;;;5.65;1.52;;;24.10;91.40;;;;;;5156833;27;20068;-90
2021/07/14 09:40:54;;;;;;;2.78;1.33;;;24.10;90.80;;;;;;5150142;27;20369;-90
2021/07/14 09:43:25;;;;;;;1.70;1.35;;;24.10;91.20;;;;;;5149509;27;20030;-91
2021/07/14 09:45:55;;;;;;;3.55;1.70;;;23.90;91.30;;;;;;5142448;27;20038;-90
2021/07/14 09:48:28;;;;;;;1.65;1.45;;;23.80;91.70;;;;;;5127904;27;20039;-90
2021/07/14 09:51:14;;;;;;;4.70;1.52;;;23.60;91.60;;;;;;5144327;27;20329;-89
2021/07/14 09:53:42;;;;;;;1.90;1.40;;;23.40;91.90;;;;;;5143526;27;20067;-88
2021/07/14 09:56:22;;;;;;;2.85;1.42;;;23.20;92.50;;;;;;5142392;27;20042;-90
2021/07/14 09:59:00;;;;;;;2.63;1.35;;;23.00;92.10;;;;;;5142005;27;20050;-89
2021/07/14 10:01:38;;;;;;;2.33;1.38;;;22.80;92.60;;;;;;5122364;27;20067;-89
2021/07/14 10:04:04;;;;;;;2.05;1.30;;;22.60;92.80;;;;;;5123184;27;20107;-89
2021/07/14 10:06:30;;;;;;;3.17;1.38;;;22.40;93.10;;;;;;5122853;27;20126;-91
2021/07/14 10:09:02;;;;;;;5.82;1.38;;;22.30;93.70;;;;;;5130400;27;20026;-88
2021/07/14 10:11:29;;;;;;;1.73;1.30;;;22.20;93.90;;;;;;5156047;27;20022;-91
2021/07/14 10:14:03;;;;;;;1.30;1.02;;;22.00;93.30;;;;;;5143591;27;20050;-89
2021/07/14 10:16:42;;;;;;;3.33;1.20;;;21.90;93.20;;;;;;5142517;27;20049;-89
2021/07/14 10:19:09;;;;;;;2.47;1.00;;;21.80;93.30;;;;;;5141046;27;20030;-89
2021/07/14 10:21:42;;;;;;;1.20;0.90;;;21.80;93.40;;;;;;5142594;27;20046;-89
2021/07/14 10:24:10;;;;;;;1.85;1.23;;;21.70;94.00;;;;;;5142041;27;20031;-89
2021/07/14 10:26:38;;;;;;;1.08;0.98;;;21.70;94.30;;;;;;5142411;27;20039;-87
2021/07/14 10:29:05;;;;;;;1.27;1.00;;;21.90;94.50;;;;;;5128913;27;20073;-89
2021/07/14 10:31:31;;;;;;;3.63;1.17;;;22.20;94.10;;;;;;5140190;27;20034;-84
2021/07/14 10:33:56;;;;;;;1.30;0.77;;;22.50;93.20;;;;;;5141129;27;20828;-92
2021/07/14 10:36:28;;;;;;;1.50;1.10;;;22.90;92.60;;;;;;5139911;27;20034;-86
2021/07/14 10:38:58;;;;;;;1.97;0.90;;;23.20;91.50;;;;;;5155892;27;20031;-83
2021/07/14 10:41:29;;;;;;;1.02;0.93;;;23.40;91.20;;;;;;5138912;27;20046;-82
2021/07/14 10:43:55;;;;;;;1.20;1.10;;;23.60;91.40;;;;;;5139614;27;20057;-85
2021/07/14 10:46:23;;;;;;;4.22;1.00;;;23.70;91.00;;;;;;5139521;27;20129;-85
2021/07/14 10:48:50;;;;;;;2.30;1.15;;;23.60;90.90;;;;;;5139100;27;20034;-85
2021/07/14 10:51:16;;;;;;;3.28;2.10;;;23.60;90.40;;;;;;5156101;27;20117;-81
2021/07/14 10:53:44;;;;;;;3.17;1.20;;;23.40;90.80;;;;;;5156784;27;20039;-86
2021/07/14 10:56:12;;;;;;;2.10;1.23;;;23.30;90.80;;;;;;5139438;27;20077;-86
2021/07/14 10:58:39;;;;;;;1.42;1.10;;;23.10;91.20;;;;;;5153977;27;20038;-87
2021/07/14 11:01:04;;;;;;;1.48;1.20;;;22.90;91.00;;;;;;5139194;27;20062;-87
2021/07/14 11:03:33;;;;;;;3.30;1.17;;;22.80;91.40;;;;;;5154241;27;20557;-86
2021/07/14 11:05:59;;;;;;;1.15;0.85;;;22.70;91.80;;;;;;5156997;27;20042;-87
2021/07/14 11:08:49;;;;;;;2.10;1.20;;;22.60;91.00;;;;;;5139021;27;20042;-87
2021/07/14 11:11:22;;;;;;;1.63;1.00;;;22.70;91.80;;;;;;5139202;27;20038;-87
2021/07/14 11:14:13;;;;;;;5.22;0.95;;;22.80;91.60;;;;;;5157854;27;20061;-86
2021/07/14 11:16:41;;;;;;;2.72;1.35;;;23.10;91.00;;;;;;5133953;27;20031;-87
2021/07/14 11:19:14;;;;;;;2.85;1.30;;;23.30;91.00;;;;;;5152090;27;20066;-87
2021/07/14 11:22:03;;;;;;;1.13;1.00;;;23.50;90.70;;;;;;5162317;27;20035;-88
2021/07/14 11:24:39;;;;;;;0.93;0.73;;;23.60;90.20;;;;;;5141983;27;20053;-87
2021/07/14 11:27:26;;;;;;;1.40;0.93;;;23.80;89.90;;;;;;5156256;27;20035;-88
2021/07/14 11:29:54;;;;;;;1.58;1.15;;;23.80;90.10;;;;;;5155913;27;20038;-87
2021/07/14 11:32:38;;;;;;;1.15;1.05;;;23.90;89.20;;;;;;5135381;27;20332;-87
2021/07/14 11:35:16;;;;;;;1.33;0.93;;;23.80;90.30;;;;;;5135469;27;20633;-87
2021/07/14 11:37:45;;;;;;;3.00;1.30;;;23.80;90.60;;;;;;5134897;27;20149;-88
2021/07/14 11:42:58;;;;;;;1.77;1.33;;;24.10;88.50;;;;;;5140422;27;20110;-89
2021/07/14 11:45:33;;;;;;;2.55;1.15;;;24.10;89.30;;;;;;5157436;27;20130;-87
2021/07/14 11:48:01;;;;;;;2.42;0.90;;;24.20;89.20;;;;;;5156597;27;20050;-87
2021/07/14 11:50:49;;;;;;;1.13;1.02;;;24.20;89.10;;;;;;5144635;27;20153;-87
2021/07/14 11:53:27;;;;;;;1.00;0.85;;;24.30;89.20;;;;;;5118374;27;20057;-87
2021/07/14 11:56:05;;;;;;;3.35;1.27;;;24.40;87.20;;;;;;5128709;27;20572;-86
2021/07/14 11:59:06;;;;;;;1.02;0.93;;;24.40;88.00;;;;;;5145359;27;20053;-86
2021/07/14 12:01:31;;;;;;;1.75;1.00;;;24.30;88.10;;;;;;5123154;27;20031;-88
2021/07/14 12:06:37;;;;;;;1.55;1.02;;;24.30;89.70;;;;;;5149545;27;20031;-90
2021/07/14 12:09:22;;;;;;;1.13;0.80;;;24.40;88.90;;;;;;5139391;27;20039;-88
2021/07/14 12:12:16;;;;;;;1.75;1.02;;;24.60;89.70;;;;;;5137863;27;20042;-88
2021/07/14 12:14:45;;;;;;;1.08;0.98;;;24.70;86.30;;;;;;5137092;27;20050;-87
2021/07/14 12:17:20;;;;;;;1.10;0.98;;;24.70;86.00;;;;;;5136756;27;20091;-89
2021/07/14 12:19:55;;;;;;;0.93;0.82;;;24.70;85.80;;;;;;5138212;27;20095;-90
2021/07/14 12:22:28;;;;;;;2.70;1.27;;;24.80;88.20;;;;;;5140906;27;20297;-89
2021/07/14 12:24:56;;;;;;;3.38;0.70;;;24.90;87.10;;;;;;5150622;27;20067;-88
2021/07/14 12:27:23;;;;;;;1.20;1.10;;;25.00;87.00;;;;;;5152239;27;20037;-88
2021/07/14 12:29:53;;;;;;;1.10;1.00;;;25.20;86.10;;;;;;5141689;27;20122;-87
2021/07/14 12:32:44;;;;;;;4.07;1.27;;;25.30;85.60;;;;;;5167733;27;20464;-89
2021/07/14 12:35:17;;;;;;;1.40;0.95;;;25.30;85.40;;;;;;5147259;27;20038;-90
2021/07/14 12:37:45;;;;;;;1.38;0.90;;;25.30;85.40;;;;;;5142268;27;20070;-87
2021/07/14 12:40:23;;;;;;;3.58;1.00;;;25.40;85.00;;;;;;5153309;27;20046;-89
2021/07/14 12:42:49;;;;;;;1.38;0.90;;;25.30;83.50;;;;;;5138538;27;20091;-88
2021/07/14 12:45:26;;;;;;;1.33;1.23;;;25.20;85.10;;;;;;5156702;27;20309;-88
2021/07/14 12:47:53;;;;;;;3.22;1.35;;;25.20;84.50;;;;;;5162375;27;20034;-89
2021/07/14 12:50:23;;;;;;;3.13;1.23;;;25.20;84.80;;;;;;5162359;27;20358;-88
2021/07/14 12:52:51;;;;;;;2.30;1.48;;;25.30;86.10;;;;;;5162187;27;20031;-88
2021/07/14 12:55:19;;;;;;;0.93;0.82;;;25.30;84.70;;;;;;5161891;27;20034;-88
2021/07/14 12:57:44;;;;;;;1.25;1.15;;;25.40;83.20;;;;;;5162781;27;20286;-90
2021/07/14 13:00:10;;;;;;;1.92;1.70;;;25.40;84.20;;;;;;5161484;27;20039;-88
2021/07/14 13:02:40;;;;;;;2.40;1.30;;;25.40;85.30;;;;;;5163468;27;20034;-89
2021/07/14 13:05:07;;;;;;;1.60;1.50;;;25.40;83.60;;;;;;5161898;27;20088;-90
2021/07/14 13:07:35;;;;;;;1.10;1.00;;;25.30;84.10;;;;;;5176068;27;20131;-88
2021/07/14 13:10:04;;;;;;;3.03;1.58;;;25.30;84.80;;;;;;5164699;27;20389;-89
2021/07/14 13:12:32;;;;;;;1.20;1.10;;;25.40;85.60;;;;;;5161472;27;20042;-90
2021/07/14 13:14:57;;;;;;;2.13;1.48;;;25.40;83.80;;;;;;5162462;27;20031;-88
2021/07/14 13:17:31;;;;;;;1.63;1.52;;;25.40;83.10;;;;;;5162453;27;20065;-88
2021/07/14 13:20:11;;;;;;;3.35;1.50;;;25.40;84.40;;;;;;5161626;27;20117;-88